createdAt,value
2023-04-06T10:57:57.065Z,1007.75
2023-04-06T10:58:57.123Z,1007.76
2023-04-06T10:59:57.050Z,1007.79
2023-04-06T11:00:57.054Z,1007.77
2023-04-06T11:01:57.105Z,1007.78
2023-04-06T11:02:57.043Z,1007.81
2023-04-06T11:03:57.016Z,1007.78
2023-04-06T11:04:56.947Z,1007.73
2023-04-06T11:05:56.965Z,1007.71
2023-04-06T11:06:56.959Z,1007.71
2023-04-06T11:07:56.915Z,1007.74
2023-04-06T11:08:56.877Z,1007.71
2023-04-06T11:10:11.623Z,1007.74
2023-04-06T11:10:56.848Z,1007.75
2023-04-06T11:11:56.875Z,1007.74
2023-04-06T11:12:56.937Z,1007.74
2023-04-06T11:13:56.801Z,1007.75
2023-04-06T11:14:56.813Z,1007.73
2023-04-06T11:15:56.777Z,1007.75
2023-04-06T11:16:56.800Z,1007.74
2023-04-06T11:17:56.887Z,1007.71
2023-04-06T11:18:56.722Z,1007.71
2023-04-06T11:19:56.750Z,1007.78
2023-04-06T11:20:56.695Z,1007.71
2023-04-06T11:21:58.116Z,1007.72
2023-04-06T11:22:56.682Z,1007.71
2023-04-06T11:23:56.674Z,1007.72
2023-04-06T11:24:56.665Z,1007.70
2023-04-06T11:25:56.658Z,1007.71
2023-04-06T11:26:56.665Z,1007.72
2023-04-06T11:27:56.601Z,1007.69
2023-04-06T11:28:56.597Z,1007.74
2023-04-06T11:29:56.600Z,1007.70
2023-04-06T11:30:56.591Z,1007.68
2023-04-06T11:31:56.538Z,1007.65
2023-04-06T11:32:56.546Z,1007.67
2023-04-06T11:33:56.566Z,1007.68
2023-04-06T11:34:56.561Z,1007.65
2023-04-06T11:35:56.487Z,1007.64
2023-04-06T11:36:56.461Z,1007.64
2023-04-06T11:37:57.535Z,1007.62
2023-04-06T11:38:56.433Z,1007.63
2023-04-06T11:39:56.455Z,1007.59
2023-04-06T11:40:56.421Z,1007.63
2023-04-06T11:41:56.416Z,1007.56
2023-04-06T11:42:56.407Z,1007.59
2023-04-06T11:43:56.366Z,1007.60
2023-04-06T11:44:56.375Z,1007.66
2023-04-06T11:45:56.417Z,1007.59
2023-04-06T11:46:56.337Z,1007.61
2023-04-06T11:47:56.384Z,1007.58
2023-04-06T11:48:56.350Z,1007.55
2023-04-06T11:50:05.761Z,1007.57
2023-04-06T11:50:56.262Z,1007.55
2023-04-06T11:51:56.272Z,1007.51
2023-04-06T11:52:56.249Z,1007.57
2023-04-06T11:53:56.228Z,1007.52
2023-04-06T11:54:56.213Z,1007.54
2023-04-06T11:55:56.193Z,1007.54
2023-04-06T11:56:56.174Z,1007.58
2023-04-06T11:57:56.187Z,1007.55
2023-04-06T11:58:56.162Z,1007.54
2023-04-06T11:59:56.165Z,1007.57
2023-04-06T12:00:56.134Z,1007.58
2023-04-06T12:01:56.143Z,1007.55
2023-04-06T12:02:56.193Z,1007.51
2023-04-06T12:03:56.238Z,1007.54
2023-04-06T12:04:56.070Z,1007.54
2023-04-06T12:05:56.734Z,1007.53
2023-04-06T12:06:56.046Z,1007.56
2023-04-06T12:07:56.280Z,1007.55
2023-04-06T12:08:56.025Z,1007.57
2023-04-06T12:09:56.020Z,1007.52
2023-04-06T12:10:55.983Z,1007.55
2023-04-06T12:11:55.978Z,1007.55
2023-04-06T12:12:55.932Z,1007.57
2023-04-06T12:13:55.947Z,1007.52
2023-04-06T12:14:55.936Z,1007.49
2023-04-06T12:15:55.972Z,1007.57
2023-04-06T12:16:55.905Z,1007.54
2023-04-06T12:17:55.927Z,1007.51
2023-04-06T12:18:55.866Z,1007.51
2023-04-06T12:19:57.171Z,1007.48
2023-04-06T12:20:55.838Z,1007.52
2023-04-06T12:21:55.854Z,1007.46
2023-04-06T12:22:55.811Z,1007.47
2023-04-06T12:23:55.812Z,1007.42
2023-04-06T12:24:55.776Z,1007.38
2023-04-06T12:25:55.834Z,1007.47
2023-04-06T12:27:06.923Z,1007.42
2023-04-06T12:27:55.731Z,1007.45
2023-04-06T12:28:55.705Z,1007.46
2023-04-06T12:29:55.710Z,1007.38
2023-04-06T12:30:55.706Z,1007.40
2023-04-06T12:31:55.795Z,1007.42
2023-04-06T12:32:55.717Z,1007.41
2023-04-06T12:33:55.665Z,1007.40
2023-04-06T12:34:55.634Z,1007.44
2023-04-06T12:35:55.641Z,1007.44
2023-04-06T12:36:55.691Z,1007.36
2023-04-06T12:37:55.605Z,1007.41
2023-04-06T12:38:55.593Z,1007.39
2023-04-06T12:39:55.592Z,1007.45
2023-04-06T12:40:55.559Z,1007.42
2023-04-06T12:41:55.529Z,1007.40
2023-04-06T12:42:55.533Z,1007.41
2023-04-06T12:43:55.503Z,1007.36
2023-04-06T12:44:55.506Z,1007.33
2023-04-06T12:45:55.476Z,1007.34
2023-04-06T12:46:55.504Z,1007.37
2023-04-06T12:47:55.499Z,1007.34
2023-04-06T12:48:55.444Z,1007.38
2023-04-06T12:49:55.454Z,1007.32
2023-04-06T12:50:55.420Z,1007.33
2023-04-06T12:51:55.413Z,1007.31
2023-04-06T12:52:55.376Z,1007.36
2023-04-06T12:53:55.387Z,1007.30
2023-04-06T12:54:55.357Z,1007.31
2023-04-06T12:55:55.334Z,1007.33
2023-04-06T12:56:55.343Z,1007.36
2023-04-06T12:57:55.309Z,1007.31
2023-04-06T12:58:55.378Z,1007.32
2023-04-06T12:59:55.438Z,1007.33
2023-04-06T13:00:55.314Z,1007.28
2023-04-06T13:01:55.313Z,1007.29
2023-04-06T13:02:55.280Z,1007.27
2023-04-06T13:03:55.226Z,1007.30
2023-04-06T13:04:55.236Z,1007.34
2023-04-06T13:05:55.229Z,1007.18
2023-04-06T13:06:55.182Z,1007.23
2023-04-06T13:07:55.182Z,1007.23
2023-04-06T13:08:55.171Z,1007.23
2023-04-06T13:09:55.157Z,1007.22
2023-04-06T13:10:55.141Z,1007.23
2023-04-06T13:11:55.145Z,1007.21
2023-04-06T13:12:55.116Z,1007.27
2023-04-06T13:13:55.115Z,1007.20
2023-04-06T13:14:55.082Z,1007.17
2023-04-06T13:15:55.158Z,1007.22
2023-04-06T13:16:55.255Z,1007.21
2023-04-06T13:17:56.399Z,1007.22
2023-04-06T13:18:55.011Z,1007.19
2023-04-06T13:19:55.036Z,1007.20
2023-04-06T13:20:55.005Z,1007.19
2023-04-06T13:21:54.976Z,1007.18
2023-04-06T13:41:12.210Z,1007.18
2023-04-06T13:42:12.191Z,1007.17
2023-04-06T13:43:12.160Z,1007.14
2023-04-06T13:44:12.148Z,1007.14
2023-04-06T13:45:12.149Z,1007.11
2023-04-06T13:46:12.164Z,1007.19
2023-04-06T13:47:12.113Z,1007.14
